Time;durP1;ratioP1;P1;durP2;ratioP2;P2;SDS_P1;SDS_P2;PMS_P1;PMS_P2;Temp;Humidity;BMP_temperature;BMP_pressure;BME280_temperature;BME280_humidity;BME280_pressure;Samples;Min_cycle;Max_cycle;Signal;HPM_P1;HPM_P2
2022/01/12 00:01:05;;;;;;;31.63;17.90;;;;;;;-0.75;100.00;97999.63;5005746;28;20084;-62
2022/01/12 00:03:34;;;;;;;29.55;17.85;;;;;;;-0.72;100.00;97987.44;5007404;28;20766;-62
2022/01/12 00:06:03;;;;;;;20.10;12.98;;;;;;;-0.91;100.00;97998.28;5005484;28;20054;-60
2022/01/12 00:08:33;;;;;;;28.65;18.50;;;;;;;-0.86;100.00;97999.88;5004696;28;20080;-62
2022/01/12 00:11:03;;;;;;;29.17;18.83;;;;;;;-0.73;100.00;98000.41;5002972;28;20088;-62
2022/01/12 00:13:32;;;;;;;31.83;18.20;;;;;;;-0.70;100.00;97999.50;5006680;28;20725;-60
2022/01/12 00:16:02;;;;;;;32.13;18.88;;;;;;;-0.67;100.00;98007.19;5007458;28;20606;-62
2022/01/12 00:18:30;;;;;;;31.30;19.00;;;;;;;-0.69;100.00;98007.22;5003388;28;20074;-59
2022/01/12 00:20:59;;;;;;;34.70;19.67;;;;;;;-0.67;100.00;98008.03;5003621;28;20089;-61
2022/01/12 00:23:27;;;;;;;30.52;19.02;;;;;;;-0.70;100.00;98008.13;5006968;28;20100;-61
2022/01/12 00:26:05;;;;;;;29.20;18.05;;;;;;;-0.68;100.00;98011.53;5003430;28;20621;-62
2022/01/12 00:34:08;;;;;;;30.27;18.55;;;;;;;-0.83;100.00;97998.94;5005376;28;20065;-61
2022/01/12 00:36:37;;;;;;;31.63;18.35;;;;;;;-0.78;100.00;98005.72;5002773;28;20667;-63
2022/01/12 00:39:06;;;;;;;34.13;19.10;;;;;;;-0.53;100.00;98005.97;5003176;28;20102;-63
2022/01/12 00:41:39;;;;;;;33.30;19.23;;;;;;;-0.49;100.00;97998.97;5004266;28;20061;-63
2022/01/12 00:44:09;;;;;;;35.25;19.13;;;;;;;-0.45;100.00;98008.34;5003773;28;20069;-62
2022/01/12 00:46:38;;;;;;;;;;;;;;;-0.67;100.00;97999.44;5003082;28;20089;-62
2022/01/12 00:49:07;;;;;;;29.88;17.98;;;;;;;-0.89;100.00;97996.50;5007059;28;20551;-62
2022/01/12 00:51:37;;;;;;;31.20;18.42;;;;;;;-0.84;100.00;97998.09;5004451;28;20084;-62
2022/01/12 00:54:08;;;;;;;33.28;19.05;;;;;;;-0.83;100.00;98001.53;5002933;28;20088;-62
2022/01/12 00:56:38;;;;;;;33.08;18.85;;;;;;;-0.95;100.00;98002.69;5001843;28;20476;-62
2022/01/12 00:59:06;;;;;;;33.50;19.27;;;;;;;-0.93;100.00;98002.63;5004708;28;20076;-63
2022/01/12 01:01:34;;;;;;;33.28;19.05;;;;;;;-0.94;100.00;98003.53;5003562;28;20488;-61
2022/01/12 01:04:03;;;;;;;33.30;19.10;;;;;;;-0.86;100.00;98007.66;5005139;28;20558;-62
2022/01/12 01:06:32;;;;;;;32.88;19.10;;;;;;;-0.89;100.00;98005.13;5003575;28;20125;-62
2022/01/12 01:09:01;;;;;;;36.50;20.75;;;;;;;-0.97;100.00;98013.06;5005606;28;20073;-62
2022/01/12 01:11:29;;;;;;;34.70;19.30;;;;;;;-0.96;100.00;98006.16;5003477;28;20450;-62
2022/01/12 01:14:01;;;;;;;39.00;20.42;;;;;;;-1.24;100.00;98008.50;5003117;28;20084;-60
2022/01/12 01:16:48;;;;;;;29.88;18.13;;;;;;;-1.11;100.00;98009.09;5002404;28;20513;-61
2022/01/12 01:27:35;;;;;;;35.50;20.45;;;;;;;-1.39;100.00;98003.69;5002309;28;20515;-62
2022/01/12 01:30:06;;;;;;;35.95;21.17;;;;;;;-1.46;100.00;98002.97;5007257;28;20080;-61
2022/01/12 01:32:35;;;;;;;38.40;20.83;;;;;;;-1.59;100.00;98004.09;5002802;28;20073;-61
2022/01/12 01:35:05;;;;;;;35.10;20.83;;;;;;;-1.72;100.00;98006.06;5002964;28;20073;-62
2022/01/12 01:37:33;;;;;;;39.53;22.40;;;;;;;-1.81;100.00;98011.44;5002541;28;20082;-61
2022/01/12 01:40:02;;;;;;;32.72;20.17;;;;;;;-1.62;100.00;98007.59;5005538;28;20061;-61
2022/01/12 01:42:43;;;;;;;35.63;21.05;;;;;;;-1.71;100.00;98006.06;5002365;28;20501;-61
2022/01/12 01:53:23;;;;;;;38.17;21.40;;;;;;;-1.50;100.00;98012.53;5004709;28;20065;-62
2022/01/12 01:55:52;;;;;;;34.78;19.63;;;;;;;-1.56;100.00;98004.03;5002083;28;21599;-62
2022/01/12 01:58:20;;;;;;;39.75;21.25;;;;;;;-1.64;100.00;98006.78;5004394;28;20069;-62
2022/01/12 02:00:50;;;;;;;37.10;20.60;;;;;;;-1.74;100.00;98006.13;5002706;28;20207;-61
2022/01/12 02:03:19;;;;;;;38.35;20.75;;;;;;;-1.79;100.00;98002.78;5004459;28;20058;-62
2022/01/12 02:05:47;;;;;;;37.38;20.90;;;;;;;-1.75;100.00;98001.84;5003497;28;20065;-62
2022/01/12 02:08:16;;;;;;;38.03;21.38;;;;;;;-1.64;100.00;98006.78;5004573;28;20091;-62
2022/01/12 02:10:44;;;;;;;40.88;21.40;;;;;;;-1.65;100.00;97997.34;5004614;28;20073;-62
2022/01/12 02:13:13;;;;;;;37.88;21.58;;;;;;;-1.62;100.00;98005.00;5023938;28;20080;-62
2022/01/12 02:15:45;;;;;;;39.75;20.70;;;;;;;-1.61;100.00;98011.06;5005766;28;20085;-61
2022/01/12 02:18:20;;;;;;;38.38;20.38;;;;;;;-1.74;100.00;98011.28;5006452;28;20073;-61
2022/01/12 02:35:19;;;;;;;28.35;14.98;;;;;;;-2.56;100.00;98039.50;5005855;28;20084;-62
2022/01/12 02:40:40;;;;;;;39.45;21.05;;;;;;;-2.36;100.00;98046.06;5006164;28;20100;-60
2022/01/12 02:43:14;;;;;;;39.83;21.65;;;;;;;-2.39;100.00;98041.81;5006193;28;20114;-60
2022/01/12 02:51:26;;;;;;;39.50;21.90;;;;;;;-2.28;100.00;98033.88;5005798;28;20073;-58
2022/01/12 02:53:55;;;;;;;;;;;;;;;-2.28;100.00;98031.28;5006733;28;20076;-61
2022/01/12 02:56:24;;;;;;;40.30;20.00;;;;;;;-2.26;100.00;98035.56;5001886;28;19964;-61
2022/01/12 02:58:55;;;;;;;37.85;19.63;;;;;;;-2.25;100.00;98042.41;5004764;28;20468;-61
2022/01/12 03:01:47;;;;;;;40.72;20.98;;;;;;;-2.38;100.00;98043.50;5008618;28;20532;-60
2022/01/12 03:04:16;;;;;;;42.38;21.90;;;;;;;-2.25;100.00;98041.56;5005201;28;20468;-61
2022/01/12 03:06:46;;;;;;;36.80;19.00;;;;;;;-2.34;100.00;98036.56;5002060;28;20445;-60
2022/01/12 03:09:15;;;;;;;41.83;21.90;;;;;;;-2.31;100.00;98041.66;5004246;28;20062;-60
2022/01/12 03:11:44;;;;;;;41.25;20.65;;;;;;;-2.31;100.00;98039.94;5006354;28;20070;-59
2022/01/12 03:14:12;;;;;;;42.10;21.13;;;;;;;-2.37;100.00;98042.66;5005411;28;20504;-59
2022/01/12 03:16:42;;;;;;;40.25;20.45;;;;;;;-2.26;100.00;98047.63;5002096;28;20097;-58
2022/01/12 03:19:10;;;;;;;40.50;21.63;;;;;;;-2.24;100.00;98053.59;5007429;28;20073;-61
2022/01/12 03:21:39;;;;;;;42.95;21.70;;;;;;;-2.34;100.00;98049.47;5004671;28;20065;-60
2022/01/12 03:24:09;;;;;;;36.53;20.73;;;;;;;-2.29;100.00;98050.25;5005376;28;20050;-59
2022/01/12 03:26:39;;;;;;;39.15;20.55;;;;;;;-2.35;100.00;98051.19;5006218;28;20076;-57
2022/01/12 03:29:08;;;;;;;41.65;21.88;;;;;;;-2.32;100.00;98056.31;5006505;28;20085;-59
2022/01/12 03:31:36;;;;;;;38.53;20.63;;;;;;;-2.31;100.00;98054.59;5005059;28;20491;-58
2022/01/12 03:34:11;;;;;;;46.47;22.13;;;;;;;-2.28;100.00;98060.56;5007431;28;20479;-61
2022/01/12 03:36:54;;;;;;;43.15;22.33;;;;;;;-2.46;100.00;98055.72;5005786;28;20522;-61
2022/01/12 03:39:24;;;;;;;41.40;21.27;;;;;;;-2.48;100.00;98063.50;5005429;28;20567;-60
2022/01/12 03:41:53;;;;;;;44.50;22.40;;;;;;;-2.55;100.00;98066.19;5004073;28;20312;-60
2022/01/12 03:44:22;;;;;;;39.78;20.63;;;;;;;-2.45;100.00;98073.75;5004865;28;20058;-61
2022/01/12 03:46:52;;;;;;;36.30;20.63;;;;;;;-2.40;100.00;98071.13;5003443;28;20081;-57
2022/01/12 03:49:22;;;;;;;38.35;21.38;;;;;;;-2.79;100.00;98065.69;5005710;28;20236;-60
2022/01/12 03:51:51;;;;;;;40.87;20.57;;;;;;;-2.58;100.00;98073.97;5002907;28;20487;-59
2022/01/12 03:54:19;;;;;;;39.88;20.40;;;;;;;-2.61;100.00;98064.56;5004723;28;20540;-59
2022/01/12 03:56:48;;;;;;;42.90;20.02;;;;;;;-2.84;100.00;98067.50;5005119;28;20069;-60
2022/01/12 03:59:17;;;;;;;43.25;22.00;;;;;;;-2.79;100.00;98060.50;5002174;28;20080;-59
2022/01/12 04:01:46;;;;;;;42.45;22.90;;;;;;;-2.55;100.00;98066.19;5004353;28;20752;-58
2022/01/12 04:04:22;;;;;;;39.42;21.67;;;;;;;-2.46;100.00;98068.63;5006410;28;20069;-60
2022/01/12 04:09:45;;;;;;;43.33;22.73;;;;;;;-2.50;100.00;98065.25;5002483;28;20077;-60
2022/01/12 04:12:15;;;;;;;;;;;;;;;-2.50;100.00;98070.41;5004258;28;20076;-60
2022/01/12 04:14:45;;;;;;;44.13;21.55;;;;;;;-2.73;100.00;98075.91;5007217;28;19983;-59
2022/01/12 04:17:13;;;;;;;43.63;22.40;;;;;;;-2.54;100.00;98071.34;5003746;28;20098;-61
2022/01/12 04:19:42;;;;;;;45.20;23.83;;;;;;;-2.73;100.00;98075.91;5003874;28;20073;-61
2022/01/12 04:23:16;;;;;;;48.00;24.40;;;;;;;-2.69;100.00;98079.31;5006153;28;20081;-58
2022/01/12 04:25:08;;;;;;;42.95;22.92;;;;;;;-2.55;100.00;98071.34;5004405;28;20516;-60
2022/01/12 04:27:37;;;;;;;47.10;24.05;;;;;;;-2.78;100.00;98077.72;5003142;28;20650;-60
2022/01/12 04:30:07;;;;;;;46.42;23.42;;;;;;;-2.41;100.00;98079.72;4998679;28;20077;-58
2022/01/12 04:32:41;;;;;;;47.55;23.77;;;;;;;-2.43;100.00;98074.59;5003713;28;20722;-60
2022/01/12 04:35:10;;;;;;;45.25;23.20;;;;;;;-2.43;100.00;98069.41;5004703;28;20073;-57
2022/01/12 04:37:38;;;;;;;50.45;24.10;;;;;;;-2.33;100.00;98071.88;5004209;28;20088;-60
2022/01/12 04:40:08;;;;;;;49.28;25.55;;;;;;;-2.39;100.00;98075.38;5007616;28;20073;-60
2022/01/12 04:42:36;;;;;;;49.03;24.35;;;;;;;-2.19;100.00;98067.31;5002569;28;20104;-60
2022/01/12 04:45:18;;;;;;;47.38;24.33;;;;;;;-1.93;100.00;98075.44;5004163;28;20539;-60
2022/01/12 04:48:00;;;;;;;45.30;24.73;;;;;;;-2.01;100.00;98074.72;5000779;28;20076;-60
2022/01/12 04:50:30;;;;;;;44.88;23.80;;;;;;;-1.93;100.00;98072.88;5003965;28;20076;-60
2022/01/12 04:52:59;;;;;;;45.70;24.23;;;;;;;-1.84;100.00;98074.41;5011301;28;20070;-60
2022/01/12 04:55:27;;;;;;;50.25;23.98;;;;;;;-1.77;100.00;98068.25;5006150;28;20578;-57
2022/01/12 04:57:56;;;;;;;46.78;23.50;;;;;;;-1.63;100.00;98067.13;5002230;28;20572;-60
2022/01/12 05:00:26;;;;;;;46.15;23.58;;;;;;;-1.40;100.00;98070.09;5005510;28;20096;-60
2022/01/12 05:08:48;;;;;;;48.63;24.45;;;;;;;-1.09;100.00;98072.91;5001494;28;20069;-60
2022/01/12 05:14:02;;;;;;;48.90;24.25;;;;;;;-1.37;100.00;98075.22;5002948;28;20104;-61
2022/01/12 05:16:32;;;;;;;47.83;24.40;;;;;;;-1.12;100.00;98070.38;5003250;28;20097;-55
2022/01/12 05:19:04;;;;;;;49.10;25.25;;;;;;;-1.30;100.00;98076.78;5001632;28;20072;-60
2022/01/12 05:21:32;;;;;;;47.33;25.13;;;;;;;-1.36;100.00;98087.25;5000240;28;20074;-61
2022/01/12 05:24:06;;;;;;;46.25;24.63;;;;;;;-1.28;100.00;98087.94;5003979;28;20088;-60
2022/01/12 05:26:34;;;;;;;53.60;25.80;;;;;;;-0.92;100.00;98095.00;5001925;28;20061;-60
2022/01/12 05:29:06;;;;;;;47.58;24.17;;;;;;;-0.99;100.00;98107.22;5002225;28;20068;-59
2022/01/12 05:31:36;;;;;;;47.63;24.70;;;;;;;-1.01;100.00;98106.38;5002146;28;20108;-56
2022/01/12 05:34:04;;;;;;;50.53;24.73;;;;;;;-0.78;100.00;98106.72;5005882;28;20469;-61
2022/01/12 05:36:33;;;;;;;48.05;23.70;;;;;;;-0.72;100.00;98114.38;5002138;28;20084;-60
2022/01/12 05:39:01;;;;;;;50.55;24.70;;;;;;;-0.71;100.00;98110.03;5003133;28;20524;-60
2022/01/12 05:41:30;;;;;;;50.53;25.23;;;;;;;-0.64;100.00;98119.38;4999642;28;20078;-62
2022/01/12 05:43:58;;;;;;;51.33;25.05;;;;;;;-0.45;100.00;98119.78;5004782;28;20065;-61
2022/01/12 05:46:27;;;;;;;44.05;22.95;;;;;;;-0.41;100.00;98113.66;5009683;28;20085;-60
2022/01/12 05:51:45;;;;;;;46.97;24.55;;;;;;;-0.29;100.00;98117.69;5003534;28;20070;-61
2022/01/12 05:54:13;;;;;;;51.20;24.83;;;;;;;-0.30;100.00;98113.41;5004688;28;20058;-58
2022/01/12 05:56:41;;;;;;;49.70;25.58;;;;;;;-0.06;100.00;98119.72;5007735;28;20076;-60
2022/01/12 05:59:10;;;;;;;52.15;25.45;;;;;;;-0.02;100.00;98123.94;5007272;28;20073;-60
2022/01/12 06:01:38;;;;;;;44.83;23.08;;;;;;;-0.55;100.00;98121.75;5005201;28;20085;-59
2022/01/12 06:04:08;;;;;;;47.72;24.02;;;;;;;-0.58;100.00;98120.97;5005346;28;20116;-60
2022/01/12 06:06:37;;;;;;;48.13;24.17;;;;;;;-0.47;100.00;98123.31;5006516;28;20066;-61
2022/01/12 06:09:05;;;;;;;47.15;24.02;;;;;;;-0.50;100.00;98116.47;5005320;28;20141;-57
2022/01/12 06:11:33;;;;;;;50.20;24.88;;;;;;;-0.35;100.00;98121.28;5008920;28;20061;-61
2022/01/12 06:14:03;;;;;;;49.90;24.92;;;;;;;-0.80;100.00;98126.63;5007139;28;20078;-61
2022/01/12 06:16:31;;;;;;;43.83;22.58;;;;;;;-0.65;100.00;98125.44;5006533;28;20550;-56
2022/01/12 06:18:59;;;;;;;49.80;23.35;;;;;;;-0.27;100.00;98136.66;5005934;28;21554;-59
2022/01/12 06:21:29;;;;;;;47.28;23.02;;;;;;;-0.30;100.00;98140.16;5008807;28;20065;-60
2022/01/12 06:23:58;;;;;;;48.60;24.10;;;;;;;-0.19;100.00;98150.28;5004158;28;20069;-57
2022/01/12 06:26:27;;;;;;;47.67;24.13;;;;;;;-0.29;100.00;98162.59;5006139;28;20153;-60
2022/01/12 06:29:22;;;;;;;46.35;21.75;;;;;;;-0.39;100.00;98174.06;5005035;28;20074;-60
2022/01/12 06:31:53;;;;;;;50.25;23.38;;;;;;;-0.28;100.00;98169.47;5005490;28;20104;-60
2022/01/12 06:34:21;;;;;;;47.58;24.15;;;;;;;-0.09;100.00;98167.31;5007617;28;20073;-58
2022/01/12 06:36:51;;;;;;;47.05;23.27;;;;;;;-0.22;100.00;98178.88;5005329;28;20088;-61
2022/01/12 06:39:22;;;;;;;49.08;24.52;;;;;;;-0.49;100.00;98177.75;4999529;28;20712;-60
2022/01/12 06:41:52;;;;;;;49.25;23.73;;;;;;;-0.47;100.00;98170.81;5005615;28;20069;-61
2022/01/12 06:44:22;;;;;;;48.50;25.00;;;;;;;-0.61;100.00;98178.91;5003751;28;20066;-60
2022/01/12 06:46:51;;;;;;;54.78;24.85;;;;;;;-0.74;100.00;98185.22;5004863;28;20070;-60
2022/01/12 06:49:20;;;;;;;507.85;205.57;;;;;;;-0.42;100.00;98194.03;5008214;28;20088;-57
2022/01/12 06:51:48;;;;;;;171.02;70.68;;;;;;;-0.49;100.00;98194.16;5006833;28;20072;-60
2022/01/12 06:54:18;;;;;;;58.35;29.42;;;;;;;-0.51;100.00;98203.72;5004638;28;20061;-58
2022/01/12 06:56:47;;;;;;;55.63;27.95;;;;;;;-0.76;100.00;98208.59;5005474;28;20076;-57
2022/01/12 06:59:15;;;;;;;53.08;25.67;;;;;;;-0.78;100.00;98210.34;5005791;28;20077;-59
2022/01/12 07:01:44;;;;;;;50.75;26.42;;;;;;;-0.79;100.00;98207.75;5006358;28;20082;-61
2022/01/12 07:04:12;;;;;;;49.97;24.98;;;;;;;-0.72;100.00;98210.22;5006254;28;20085;-57
2022/01/12 07:06:41;;;;;;;54.25;27.25;;;;;;;-0.84;100.00;98207.03;5005495;28;20568;-60
2022/01/12 07:09:09;;;;;;;45.90;24.02;;;;;;;-0.40;100.00;98207.81;5007110;28;20084;-60
2022/01/12 07:11:39;;;;;;;53.65;26.25;;;;;;;-0.74;100.00;98206.78;5004195;28;20079;-59
2022/01/12 07:14:07;;;;;;;56.63;26.00;;;;;;;-0.37;100.00;98203.41;4992094;28;20132;-60
2022/01/12 07:16:35;;;;;;;51.20;25.52;;;;;;;-0.74;100.00;98211.97;5007015;28;20528;-60
2022/01/12 07:19:04;;;;;;;52.42;25.80;;;;;;;-0.26;100.00;98214.38;5007776;28;20096;-60
2022/01/12 07:21:32;;;;;;;59.50;26.35;;;;;;;-1.00;100.00;98227.19;5006974;28;20536;-60
2022/01/12 07:24:01;;;;;;;54.97;26.35;;;;;;;-0.85;100.00;98223.47;5005904;28;20100;-61
2022/01/12 07:26:29;;;;;;;54.10;26.23;;;;;;;-0.64;100.00;98229.94;5012741;28;20050;-59
2022/01/12 07:28:59;;;;;;;57.10;25.88;;;;;;;-0.12;100.00;98236.56;5005648;28;20068;-60
2022/01/12 07:31:28;;;;;;;56.67;27.42;;;;;;;-0.57;100.00;98249.63;5009325;28;20104;-59
2022/01/12 07:33:56;;;;;;;53.28;25.00;;;;;;;-0.69;100.00;98250.72;5005543;28;20100;-61
2022/01/12 07:36:24;;;;;;;52.30;24.88;;;;;;;-0.92;100.00;98242.59;5006481;28;20073;-60
2022/01/12 07:38:55;;;;;;;58.05;25.90;;;;;;;-0.55;100.00;98250.44;5005116;28;20064;-56
2022/01/12 07:41:24;;;;;;;48.05;24.42;;;;;;;-0.88;100.00;98254.59;5007962;28;20754;-60
2022/01/12 07:43:52;;;;;;;49.20;24.55;;;;;;;-0.86;100.00;98251.09;5005636;28;20069;-59
2022/01/12 07:46:22;;;;;;;53.17;25.48;;;;;;;-0.57;100.00;98260.00;5007678;28;20734;-59
2022/01/12 07:48:51;;;;;;;51.35;23.92;;;;;;;-0.58;100.00;98272.13;5004561;28;20065;-60
2022/01/12 07:51:19;;;;;;;44.10;21.95;;;;;;;-1.13;100.00;98283.53;5005855;28;20072;-60
2022/01/12 07:53:47;;;;;;;50.72;24.90;;;;;;;-1.00;100.00;98281.56;5006261;28;20530;-60
2022/01/12 07:56:16;;;;;;;50.75;24.77;;;;;;;-0.76;100.00;98283.69;5004722;28;20057;-56
2022/01/12 07:58:44;;;;;;;46.78;22.50;;;;;;;-1.02;100.00;98275.56;5005406;28;20085;-60
2022/01/12 08:01:13;;;;;;;48.63;23.52;;;;;;;-0.50;100.00;98271.94;5014438;28;20082;-59
2022/01/12 08:03:43;;;;;;;50.00;23.67;;;;;;;-0.66;100.00;98279.16;5004380;28;20077;-59
2022/01/12 08:06:11;;;;;;;47.75;23.70;;;;;;;-0.13;100.00;98276.34;5006125;28;20073;-61
2022/01/12 08:08:40;;;;;;;50.65;22.80;;;;;;;-0.11;100.00;98287.53;5006622;28;20579;-60
2022/01/12 08:11:08;;;;;;;53.28;24.75;;;;;;;-0.17;100.00;98292.84;5008383;28;20061;-60
2022/01/12 08:13:37;;;;;;;49.97;24.98;;;;;;;-0.18;100.00;98288.53;5004554;28;20485;-61
2022/01/12 08:16:05;;;;;;;45.33;24.20;;;;;;;-0.03;100.00;98288.22;5009839;28;20091;-61
2022/01/12 08:18:34;;;;;;;53.30;25.08;;;;;;;-0.11;100.00;98297.91;5007280;28;20088;-60
2022/01/12 08:21:06;;;;;;;44.15;21.17;;;;;;;-0.69;100.00;98314.66;5005161;28;20076;-59
2022/01/12 08:23:34;;;;;;;48.72;24.30;;;;;;;-0.60;100.00;98317.06;5000502;28;20105;-60
2022/01/12 08:26:07;;;;;;;48.83;24.63;;;;;;;-0.63;100.00;98305.00;5007117;28;20161;-60
2022/01/12 08:28:35;;;;;;;48.78;24.15;;;;;;;-0.81;100.00;98307.97;5004443;28;20089;-58
2022/01/12 08:31:04;;;;;;;49.10;23.10;;;;;;;-0.86;100.00;98302.00;5001780;28;20085;-60
2022/01/12 08:33:33;;;;;;;50.65;24.75;;;;;;;-0.60;100.00;98298.94;5004493;28;20074;-60
2022/01/12 08:36:01;;;;;;;44.85;22.95;;;;;;;-0.75;100.00;98300.94;5009473;28;20524;-60
2022/01/12 08:38:31;;;;;;;45.40;23.08;;;;;;;-0.44;100.00;98302.06;5004157;28;20085;-58
2022/01/12 08:40:59;;;;;;;40.47;21.33;;;;;;;-0.54;100.00;98304.00;5004923;28;20069;-60
2022/01/12 08:43:28;;;;;;;42.80;22.38;;;;;;;-0.46;100.00;98309.88;5006776;28;20543;-60
2022/01/12 08:45:56;;;;;;;44.28;21.67;;;;;;;-0.40;100.00;98304.56;5007970;28;21526;-59
2022/01/12 08:48:25;;;;;;;39.20;20.42;;;;;;;-0.28;100.00;98304.28;5005001;28;20081;-58
2022/01/12 08:50:53;;;;;;;38.72;19.55;;;;;;;0.16;100.00;98293.81;5004127;28;20547;-60
2022/01/12 08:53:22;;;;;;;43.60;22.85;;;;;;;0.12;100.00;98298.22;5006222;28;20065;-60
2022/01/12 08:55:52;;;;;;;43.55;22.45;;;;;;;-0.58;100.00;98315.31;5007136;28;20077;-59
2022/01/12 08:58:20;;;;;;;38.33;19.93;;;;;;;-0.22;100.00;98305.06;5007073;28;20084;-61
2022/01/12 09:00:49;;;;;;;37.22;19.45;;;;;;;-0.40;100.00;98298.53;5005329;28;21093;-61
2022/01/12 09:03:17;;;;;;;41.05;21.10;;;;;;;-0.03;100.00;98299.44;5005411;28;20508;-61
2022/01/12 09:05:46;;;;;;;39.45;20.65;;;;;;;-0.15;100.00;98296.25;5004941;28;20523;-60
2022/01/12 09:08:14;;;;;;;39.60;20.70;;;;;;;-0.17;100.00;98301.50;5003967;28;20077;-61
2022/01/12 09:10:43;;;;;;;41.10;21.00;;;;;;;-0.33;100.00;98295.78;5004449;28;20093;-60
2022/01/12 09:13:12;;;;;;;42.58;22.15;;;;;;;-0.25;100.00;98300.78;5006044;28;20085;-60
2022/01/12 09:15:41;;;;;;;45.03;25.35;;;;;;;0.41;100.00;98305.34;5005599;28;20065;-59
2022/01/12 09:18:09;;;;;;;48.60;25.60;;;;;;;0.68;100.00;98306.41;5003193;28;20074;-59
2022/01/12 09:20:38;;;;;;;41.97;21.35;;;;;;;0.84;100.00;98313.81;5005088;28;20088;-60
2022/01/12 09:23:07;;;;;;;40.67;21.17;;;;;;;1.00;100.00;98324.66;5004354;28;20173;-60
2022/01/12 09:25:39;;;;;;;39.92;20.88;;;;;;;1.17;100.00;98325.94;5003968;28;20076;-61
2022/01/12 09:28:07;;;;;;;45.67;22.20;;;;;;;0.69;100.00;98317.66;5005208;28;20074;-60
2022/01/12 09:30:38;;;;;;;42.72;21.73;;;;;;;0.40;100.00;98318.34;5003539;28;20073;-60
2022/01/12 09:33:06;;;;;;;;;;;;;;;0.87;100.00;98305.97;5001514;28;20057;-59
2022/01/12 09:35:35;;;;;;;46.50;21.63;;;;;;;0.68;100.00;98303.81;5001906;28;20384;-58
2022/01/12 09:38:03;;;;;;;45.42;22.50;;;;;;;0.54;100.00;98303.28;5004867;28;20104;-61
2022/01/12 09:40:32;;;;;;;45.97;24.48;;;;;;;0.46;100.00;98305.25;5001990;28;20538;-57
2022/01/12 09:43:04;;;;;;;46.88;24.05;;;;;;;0.64;100.00;98309.13;5004777;28;20069;-60
2022/01/12 09:45:33;;;;;;;42.90;22.73;;;;;;;0.44;100.00;98307.00;5003146;28;20468;-61
2022/01/12 09:48:03;;;;;;;44.53;22.98;;;;;;;0.36;100.00;98301.16;5005087;28;20061;-60
2022/01/12 09:50:32;;;;;;;46.63;23.45;;;;;;;0.80;100.00;98297.47;5003092;28;20069;-61
2022/01/12 09:53:00;;;;;;;46.03;23.40;;;;;;;0.23;100.00;98295.38;5009835;28;20065;-60
2022/01/12 09:55:28;;;;;;;42.97;21.77;;;;;;;0.92;100.00;98299.72;5007190;28;20069;-61
2022/01/12 09:57:57;;;;;;;40.75;21.92;;;;;;;0.65;100.00;98295.25;5002602;28;20512;-62
2022/01/12 10:00:27;;;;;;;39.08;21.88;;;;;;;0.65;100.00;98292.66;4999962;28;20579;-60
2022/01/12 10:02:57;;;;;;;38.28;21.45;;;;;;;0.41;100.00;98304.47;5007355;28;20062;-61
2022/01/12 10:05:31;;;;;;;36.55;19.25;;;;;;;0.04;100.00;98313.13;5008140;28;20076;-61
2022/01/12 10:08:11;;;;;;;35.40;18.52;;;;;;;0.06;100.00;98319.13;5003408;28;20065;-58
2022/01/12 10:10:40;;;;;;;31.92;16.83;;;;;;;0.04;100.00;98320.91;5002895;28;20084;-60
2022/01/12 10:13:22;;;;;;;32.72;18.70;;;;;;;-0.08;100.00;98315.97;5009191;28;20076;-60
2022/01/12 10:15:52;;;;;;;28.10;17.08;;;;;;;0.70;100.00;98302.03;5008307;28;20065;-60
2022/01/12 10:18:22;;;;;;;28.75;17.23;;;;;;;0.85;100.00;98311.16;5001433;28;20065;-60
2022/01/12 10:20:52;;;;;;;29.83;17.30;;;;;;;0.93;100.00;98311.84;5002761;28;20058;-61
2022/01/12 10:23:24;;;;;;;29.63;17.25;;;;;;;1.08;100.00;98309.75;5004840;28;20061;-59
2022/01/12 10:25:53;;;;;;;31.50;17.23;;;;;;;1.21;100.00;98297.28;5002953;28;20487;-60
2022/01/12 10:28:24;;;;;;;29.30;16.92;;;;;;;1.12;100.00;98300.97;5001462;28;20066;-61
2022/01/12 10:30:55;;;;;;;29.55;17.50;;;;;;;1.03;100.00;98298.59;5006411;28;20070;-60
2022/01/12 10:33:26;;;;;;;32.22;18.75;;;;;;;0.88;100.00;98303.31;5007720;28;20085;-60
2022/01/12 10:35:58;;;;;;;30.10;16.40;;;;;;;0.76;100.00;98301.03;5006491;28;20073;-60
2022/01/12 10:38:27;;;;;;;28.65;16.67;;;;;;;0.95;100.00;98293.63;5002076;28;20058;-61
2022/01/12 10:40:57;;;;;;;26.15;15.35;;;;;;;0.57;100.00;98295.44;5007616;28;20069;-61
2022/01/12 10:43:27;;;;;;;25.53;14.23;;;;;;;0.51;100.00;98303.38;5008948;28;20508;-61
2022/01/12 10:45:56;;;;;;;28.45;15.57;;;;;;;0.42;100.00;98314.84;5005827;28;20515;-61
2022/01/12 10:48:25;;;;;;;34.75;18.70;;;;;;;0.68;100.00;98296.00;5008943;28;20061;-61
2022/01/12 10:50:56;;;;;;;33.35;18.52;;;;;;;0.85;100.00;98297.34;5007200;28;20061;-61
2022/01/12 10:53:28;;;;;;;33.88;18.02;;;;;;;1.05;100.00;98289.88;5005927;28;20076;-61
2022/01/12 10:56:05;;;;;;;32.63;17.95;;;;;;;1.30;100.00;98284.84;5005336;28;20444;-61
2022/01/12 10:58:33;;;;;;;33.38;17.75;;;;;;;1.58;100.00;98284.97;5005554;28;20085;-61
2022/01/12 11:01:02;;;;;;;34.47;18.88;;;;;;;1.55;100.00;98282.44;5009652;28;20069;-61
2022/01/12 11:03:31;;;;;;;37.10;18.38;;;;;;;1.55;100.00;98276.34;5006013;28;20069;-61
2022/01/12 11:06:02;;;;;;;35.88;19.35;;;;;;;1.56;100.00;98281.53;5004833;28;20076;-61
2022/01/12 11:08:31;;;;;;;35.03;18.08;;;;;;;1.47;100.00;98288.75;5010402;28;20081;-61
2022/01/12 11:11:00;;;;;;;39.58;19.55;;;;;;;1.45;100.00;98299.19;5005695;28;20069;-61
2022/01/12 11:13:30;;;;;;;37.38;19.48;;;;;;;1.07;100.00;98305.44;5009977;28;20092;-61
2022/01/12 11:15:59;;;;;;;33.03;18.40;;;;;;;0.90;100.00;98306.72;5005364;28;20460;-60
2022/01/12 11:18:30;;;;;;;34.58;18.58;;;;;;;0.87;100.00;98303.34;5006611;28;20069;-61
2022/01/12 11:21:04;;;;;;;41.42;22.58;;;;;;;0.67;100.00;98304.69;5004990;28;20076;-60
2022/01/12 11:23:37;;;;;;;37.22;19.67;;;;;;;0.70;100.00;98303.78;5008028;28;20065;-62
2022/01/12 11:26:14;;;;;;;42.67;22.60;;;;;;;1.05;100.00;98286.44;5022313;28;20073;-61
2022/01/12 11:28:43;;;;;;;41.30;22.00;;;;;;;1.16;100.00;98274.84;5006951;28;20069;-60
2022/01/12 11:31:12;;;;;;;39.50;20.83;;;;;;;1.15;100.00;98283.53;5007498;28;20061;-60
2022/01/12 11:33:43;;;;;;;39.93;19.10;;;;;;;1.17;100.00;98289.56;5006838;28;20078;-61
2022/01/12 11:36:18;;;;;;;38.88;20.40;;;;;;;1.13;100.00;98276.66;5007113;28;20473;-61
2022/01/12 11:38:51;;;;;;;38.38;20.33;;;;;;;0.91;100.00;98277.25;5006106;28;20104;-61
2022/01/12 11:41:23;;;;;;;38.03;20.58;;;;;;;0.88;100.00;98274.72;5004404;28;20069;-60
2022/01/12 11:43:53;;;;;;;39.00;21.20;;;;;;;1.33;100.00;98260.53;5002343;28;20096;-61
2022/01/12 11:46:23;;;;;;;35.00;17.73;;;;;;;1.01;100.00;98272.66;5009172;28;20424;-61
2022/01/12 11:48:53;;;;;;;34.80;17.90;;;;;;;0.81;100.00;98282.72;5004053;28;20065;-61
2022/01/12 11:51:37;;;;;;;30.67;16.70;;;;;;;0.79;100.00;98280.19;5004591;28;20073;-59
2022/01/12 11:54:08;;;;;;;34.95;18.65;;;;;;;0.84;100.00;98288.69;5005413;28;20485;-60
2022/01/12 11:56:38;;;;;;;35.20;18.65;;;;;;;0.83;100.00;98293.94;5005297;28;20062;-59
2022/01/12 11:59:09;;;;;;;37.47;18.33;;;;;;;0.80;100.00;98299.22;5005144;28;20077;-61
2022/01/12 12:01:44;;;;;;;38.38;19.90;;;;;;;0.97;100.00;98289.25;5005022;28;20085;-61
2022/01/12 12:04:27;;;;;;;35.45;18.33;;;;;;;0.79;100.00;98300.09;5009324;28;20069;-61
2022/01/12 12:07:05;;;;;;;31.70;15.77;;;;;;;0.39;100.00;98301.09;5005727;28;20065;-60
2022/01/12 12:09:39;;;;;;;38.20;19.75;;;;;;;0.41;100.00;98302.75;5004350;28;20069;-59
2022/01/12 12:12:15;;;;;;;35.40;19.98;;;;;;;0.41;100.00;98294.97;5001330;28;20074;-60
2022/01/12 12:14:46;;;;;;;33.63;17.52;;;;;;;0.57;100.00;98312.75;5010647;28;20073;-58
2022/01/12 12:17:15;;;;;;;17.20;10.05;;;;;;;0.02;100.00;98324.41;5006900;28;20069;-61
2022/01/12 12:19:44;;;;;;;41.05;21.73;;;;;;;0.54;100.00;98318.88;5003765;28;20104;-61
2022/01/12 12:22:16;;;;;;;42.65;22.73;;;;;;;0.64;100.00;98319.50;5008105;28;20081;-61
2022/01/12 12:24:47;;;;;;;39.92;19.70;;;;;;;0.37;100.00;98318.41;5005742;28;20076;-60